TOM54U EGGW-LDSP
Flight info
| Callsign | TOM54U |
|---|---|
| Flight time | N/A |
| Altitude | 39000 |
| Route | MATCH Q295 BRAIN P44 DAGGA M85 ITVIP L10 DVR UL9 KONAN UL607 KOK DCT LIRSU DCT KRH DCT UTABA DCT BEMKI DCT ELMEM DCT DIRAB DCT VESAL DCT PEVAL DCT NAKIT DCT PUL DCT LOS DCT MINTU DCT SAL |
| Aircraft | B738/M-SDFGHIJ1RWXYZ/LB1 |
Departure
| Time | 2026-04-30 14:26 |
|---|---|
| Airport | London Luton Airport (EGGW) |
Arrival
| Time | N/A |
|---|---|
| Airport | Split Saint Jerome Airport (LDSP) |
| Time | Latitude | Longitude | Altitude | Speed | Heading |
|---|---|---|---|---|---|
| 2026-04-30 13:56 | 51.87714 | -0.37809 | 522 ft | 0 kts | 206° |
| 2026-04-30 14:18 | 51.87728 | -0.37798 | 522 ft | 2 kts | 205° |
| 2026-04-30 14:18 | 51.87743 | -0.37787 | 522 ft | 2 kts | 198° |
| 2026-04-30 14:18 | 51.87769 | -0.37807 | 522 ft | 2 kts | 113° |
| 2026-04-30 14:19 | 51.87773 | -0.37822 | 522 ft | 0 kts | 113° |
| 2026-04-30 14:22 | 51.87754 | -0.37756 | 522 ft | 8 kts | 115° |
| 2026-04-30 14:22 | 51.87720 | -0.37641 | 518 ft | 14 kts | 115° |
| 2026-04-30 14:23 | 51.87581 | -0.37457 | 521 ft | 14 kts | 183° |
| 2026-04-30 14:23 | 51.87481 | -0.37668 | 522 ft | 13 kts | 254° |
| 2026-04-30 14:24 | 51.87434 | -0.37938 | 523 ft | 12 kts | 255° |
| 2026-04-30 14:24 | 51.87390 | -0.38048 | 523 ft | 12 kts | 213° |
| 2026-04-30 14:25 | 51.87258 | -0.38120 | 522 ft | 6 kts | 167° |
| 2026-04-30 14:25 | 51.87314 | -0.37702 | 521 ft | 68 kts | 75° |
| 2026-04-30 14:26 | 51.87796 | -0.35006 | 896 ft | 152 kts | 78° |
| 2026-04-30 14:26 | 51.88077 | -0.33366 | 1830 ft | 153 kts | 78° |
| 2026-04-30 14:26 | 51.88722 | -0.29578 | 2576 ft | 199 kts | 79° |
| 2026-04-30 14:27 | 51.89108 | -0.27334 | 3005 ft | 214 kts | 78° |
| 2026-04-30 14:27 | 51.89502 | -0.24992 | 3602 ft | 217 kts | 85° |
| 2026-04-30 14:27 | 51.89371 | -0.22610 | 4076 ft | 211 kts | 116° |
| 2026-04-30 14:28 | 51.87262 | -0.19526 | 4837 ft | 210 kts | 153° |
| 2026-04-30 14:28 | 51.86033 | -0.18605 | 5283 ft | 220 kts | 154° |
| 2026-04-30 14:28 | 51.84569 | -0.17530 | 5815 ft | 230 kts | 155° |
| 2026-04-30 14:28 | 51.83071 | -0.16453 | 6338 ft | 242 kts | 155° |
| 2026-04-30 14:29 | 51.79892 | -0.14192 | 6885 ft | 255 kts | 155° |
| 2026-04-30 14:29 | 51.77225 | -0.12208 | 7286 ft | 252 kts | 146° |
| 2026-04-30 14:30 | 51.75535 | -0.03372 | 9530 ft | 271 kts | 86° |
| 2026-04-30 14:31 | 51.76078 | 0.02738 | 10697 ft | 291 kts | 86° |
| 2026-04-30 14:31 | 51.76664 | 0.09715 | 11280 ft | 329 kts | 86° |
| 2026-04-30 14:31 | 51.76966 | 0.13402 | 11957 ft | 334 kts | 85° |
| 2026-04-30 14:32 | 51.77574 | 0.20915 | 13428 ft | 341 kts | 86° |
| 2026-04-30 14:32 | 51.77879 | 0.24743 | 14139 ft | 346 kts | 85° |
| 2026-04-30 14:32 | 51.78186 | 0.28571 | 14813 ft | 350 kts | 85° |
| 2026-04-30 14:33 | 51.78503 | 0.32494 | 15528 ft | 354 kts | 85° |
| 2026-04-30 14:33 | 51.79145 | 0.40468 | 16893 ft | 363 kts | 85° |
| 2026-04-30 14:33 | 51.79470 | 0.44538 | 17574 ft | 367 kts | 85° |
| 2026-04-30 14:34 | 51.79798 | 0.48648 | 18236 ft | 371 kts | 85° |
| 2026-04-30 14:34 | 51.80127 | 0.52811 | 18844 ft | 376 kts | 85° |
| 2026-04-30 14:34 | 51.80459 | 0.57010 | 19521 ft | 377 kts | 85° |
| 2026-04-30 14:34 | 51.80790 | 0.61227 | 20184 ft | 378 kts | 85° |
| 2026-04-30 14:35 | 51.81411 | 0.69674 | 21379 ft | 382 kts | 91° |
| 2026-04-30 14:35 | 51.81038 | 0.73893 | 21947 ft | 380 kts | 110° |
| 2026-04-30 14:35 | 51.79826 | 0.77664 | 22540 ft | 380 kts | 128° |
| 2026-04-30 14:36 | 51.77964 | 0.80690 | 23112 ft | 382 kts | 143° |
| 2026-04-30 14:36 | 51.75613 | 0.82746 | 23632 ft | 388 kts | 159° |
| 2026-04-30 14:36 | 51.73032 | 0.84100 | 24141 ft | 391 kts | 161° |
| 2026-04-30 14:36 | 51.70412 | 0.85338 | 24594 ft | 394 kts | 162° |
| 2026-04-30 14:37 | 51.67768 | 0.86555 | 25070 ft | 396 kts | 162° |
| 2026-04-30 14:37 | 51.65115 | 0.87788 | 25543 ft | 398 kts | 162° |
| 2026-04-30 14:37 | 51.62488 | 0.89027 | 25993 ft | 400 kts | 162° |
| 2026-04-30 14:37 | 51.59815 | 0.90305 | 26431 ft | 402 kts | 161° |
| 2026-04-30 14:38 | 51.57130 | 0.91600 | 26867 ft | 404 kts | 161° |
| 2026-04-30 14:38 | 51.54430 | 0.92906 | 27284 ft | 406 kts | 161° |
| 2026-04-30 14:38 | 51.51719 | 0.94219 | 27690 ft | 408 kts | 161° |
| 2026-04-30 14:38 | 51.48989 | 0.95540 | 28090 ft | 411 kts | 161° |
| 2026-04-30 14:39 | 51.46241 | 0.96869 | 28484 ft | 413 kts | 161° |
| 2026-04-30 14:39 | 51.43480 | 0.98201 | 28868 ft | 415 kts | 162° |
| 2026-04-30 14:39 | 51.40708 | 0.99536 | 29247 ft | 417 kts | 162° |
| 2026-04-30 14:40 | 51.35126 | 1.02221 | 29955 ft | 421 kts | 162° |
| 2026-04-30 14:40 | 51.32329 | 1.03646 | 30294 ft | 422 kts | 156° |
| 2026-04-30 14:40 | 51.29783 | 1.05862 | 30579 ft | 423 kts | 144° |
| 2026-04-30 14:40 | 51.27510 | 1.08856 | 30866 ft | 424 kts | 135° |
| 2026-04-30 14:41 | 51.25642 | 1.12510 | 31169 ft | 426 kts | 124° |
| 2026-04-30 14:41 | 51.24067 | 1.16505 | 31599 ft | 424 kts | 123° |
| 2026-04-30 14:41 | 51.22520 | 1.20499 | 32028 ft | 422 kts | 123° |
| 2026-04-30 14:41 | 51.20954 | 1.24456 | 32394 ft | 421 kts | 123° |
| 2026-04-30 14:42 | 51.19364 | 1.28392 | 32748 ft | 421 kts | 124° |
| 2026-04-30 14:42 | 51.17873 | 1.32405 | 33105 ft | 421 kts | 116° |
| 2026-04-30 14:42 | 51.16787 | 1.36743 | 33489 ft | 422 kts | 109° |
| 2026-04-30 14:42 | 51.16046 | 1.41264 | 33871 ft | 422 kts | 102° |
| 2026-04-30 14:43 | 51.15718 | 1.45913 | 34202 ft | 423 kts | 97° |
| 2026-04-30 14:43 | 51.15505 | 1.50592 | 34473 ft | 424 kts | 96° |
| 2026-04-30 14:43 | 51.15309 | 1.55290 | 34701 ft | 425 kts | 96° |
| 2026-04-30 14:43 | 51.15109 | 1.59924 | 34934 ft | 425 kts | 96° |
| 2026-04-30 14:44 | 51.14895 | 1.64621 | 35194 ft | 425 kts | 96° |
| 2026-04-30 14:44 | 51.14669 | 1.69324 | 35451 ft | 425 kts | 96° |
| 2026-04-30 14:44 | 51.14436 | 1.74023 | 35678 ft | 426 kts | 96° |
| 2026-04-30 14:44 | 51.14198 | 1.78731 | 35911 ft | 426 kts | 96° |
| 2026-04-30 14:45 | 51.13764 | 1.83388 | 36126 ft | 425 kts | 105° |
| 2026-04-30 14:45 | 51.12833 | 1.87844 | 36340 ft | 423 kts | 115° |
| 2026-04-30 14:45 | 51.11603 | 1.92095 | 36567 ft | 424 kts | 116° |
| 2026-04-30 14:45 | 51.10351 | 1.96353 | 36765 ft | 424 kts | 116° |
| 2026-04-30 14:46 | 51.09102 | 2.00615 | 36982 ft | 425 kts | 116° |
| 2026-04-30 14:46 | 51.07873 | 2.04840 | 37214 ft | 425 kts | 115° |
| 2026-04-30 14:46 | 51.06638 | 2.09114 | 37447 ft | 425 kts | 115° |
| 2026-04-30 14:46 | 51.05823 | 2.11942 | 37595 ft | 425 kts | 115° |
| 2026-04-30 14:47 | 51.04177 | 2.17664 | 37858 ft | 425 kts | 115° |
| 2026-04-30 14:47 | 51.02948 | 2.21930 | 38089 ft | 425 kts | 115° |
| 2026-04-30 14:47 | 51.01726 | 2.26169 | 38291 ft | 425 kts | 115° |
| 2026-04-30 14:47 | 51.00480 | 2.30482 | 38478 ft | 426 kts | 115° |
| 2026-04-30 14:48 | 50.99245 | 2.34744 | 38741 ft | 424 kts | 116° |
| 2026-04-30 14:48 | 50.98024 | 2.38953 | 38936 ft | 424 kts | 116° |
| 2026-04-30 14:48 | 50.96790 | 2.43203 | 39098 ft | 424 kts | 116° |
| 2026-04-30 14:48 | 50.95557 | 2.47443 | 39205 ft | 424 kts | 116° |
| 2026-04-30 14:49 | 50.93069 | 2.55975 | 39231 ft | 428 kts | 115° |
| 2026-04-30 14:49 | 50.90611 | 2.64575 | 39227 ft | 428 kts | 115° |
| 2026-04-30 14:50 | 50.86936 | 2.77495 | 39227 ft | 428 kts | 115° |
| 2026-04-30 14:51 | 50.83268 | 2.90284 | 39221 ft | 426 kts | 115° |
| 2026-04-30 14:52 | 50.79579 | 3.03070 | 39219 ft | 425 kts | 115° |
| 2026-04-30 14:52 | 50.75884 | 3.15800 | 39210 ft | 423 kts | 115° |
| 2026-04-30 14:53 | 50.72210 | 3.28393 | 39222 ft | 422 kts | 115° |
| 2026-04-30 14:54 | 50.67281 | 3.45185 | 39214 ft | 421 kts | 115° |
| 2026-04-30 14:55 | 50.63575 | 3.57733 | 39225 ft | 421 kts | 115° |
| 2026-04-30 14:56 | 50.58609 | 3.74449 | 39230 ft | 422 kts | 116° |
| 2026-04-30 14:57 | 50.54862 | 3.86982 | 39228 ft | 422 kts | 115° |
| 2026-04-30 14:58 | 50.49835 | 4.03699 | 39240 ft | 423 kts | 115° |
| 2026-04-30 14:58 | 50.46476 | 4.14803 | 39236 ft | 423 kts | 115° |
| 2026-04-30 15:00 | 50.40169 | 4.35520 | 39236 ft | 421 kts | 115° |
| 2026-04-30 15:01 | 50.35097 | 4.52051 | 39242 ft | 420 kts | 115° |
| 2026-04-30 15:01 | 50.31281 | 4.64418 | 39243 ft | 419 kts | 115° |
| 2026-04-30 15:02 | 50.28740 | 4.72620 | 39251 ft | 419 kts | 115° |
| 2026-04-30 15:03 | 50.22371 | 4.93053 | 39255 ft | 419 kts | 115° |
| 2026-04-30 15:04 | 50.15939 | 5.13516 | 39267 ft | 420 kts | 115° |
| 2026-04-30 15:06 | 50.09471 | 5.33928 | 39267 ft | 421 kts | 115° |
| 2026-04-30 15:07 | 50.04245 | 5.50297 | 39271 ft | 422 kts | 115° |
| 2026-04-30 15:08 | 49.99012 | 5.66583 | 39273 ft | 422 kts | 115° |
| 2026-04-30 15:09 | 49.92414 | 5.86967 | 39279 ft | 422 kts | 115° |
| 2026-04-30 15:10 | 49.87106 | 6.03247 | 39278 ft | 423 kts | 115° |
| 2026-04-30 15:11 | 49.79094 | 6.27622 | 39274 ft | 425 kts | 115° |
| 2026-04-30 15:13 | 49.72329 | 6.48004 | 39274 ft | 427 kts | 115° |
| 2026-04-30 15:14 | 49.62791 | 6.76482 | 39278 ft | 426 kts | 115° |